Time;durP1;ratioP1;P1;durP2;ratioP2;P2;SDS_P1;SDS_P2;PMS_P1;PMS_P2;Temp;Humidity;BMP_temperature;BMP_pressure;BME280_temperature;BME280_humidity;BME280_pressure;Samples;Min_cycle;Max_cycle;Signal;HPM_P1;HPM_P2
2022/12/25 09:53:38;;;;;;;2.90;2.63;;;18.00;99.90;;;;;;5069924;28;20500;-48
2022/12/25 09:56:16;;;;;;;2.10;1.83;;;17.10;99.90;;;;;;5040435;28;20239;-52
2022/12/25 09:58:42;;;;;;;3.20;2.30;;;18.20;99.90;;;;;;5039683;28;20450;-50
2022/12/25 10:01:40;;;;;;;2.95;2.40;;;19.60;99.90;;;;;;5038348;28;20214;-47
2022/12/25 10:04:44;;;;;;;3.25;2.42;;;21.00;99.90;;;;;;5040436;28;20194;-51
2022/12/25 10:07:52;;;;;;;3.00;2.50;;;23.30;99.90;;;;;;5036832;28;20289;-50
2022/12/25 10:10:38;;;;;;;2.90;2.60;;;26.20;95.50;;;;;;5033498;28;20183;-53
2022/12/25 10:13:36;;;;;;;3.17;2.75;;;27.30;90.30;;;;;;5038341;28;20297;-49
2022/12/25 10:16:23;;;;;;;3.03;2.72;;;27.90;86.60;;;;;;5037467;28;20196;-50
2022/12/25 10:18:51;;;;;;;2.78;2.20;;;;;;;;;;5037818;28;20176;-49
2022/12/25 10:21:18;;;;;;;2.25;2.05;;;28.40;82.10;;;;;;5044470;28;20230;-48
2022/12/25 10:23:55;;;;;;;3.90;2.42;;;28.40;80.90;;;;;;5034920;28;20648;-50
2022/12/25 10:26:24;;;;;;;2.40;2.20;;;27.70;80.00;;;;;;5036165;28;20202;-54
2022/12/25 10:29:20;;;;;;;2.35;1.70;;;28.00;78.60;;;;;;5039257;28;20194;-49
2022/12/25 10:31:47;;;;;;;2.38;1.88;;;;;;;;;;5039328;28;20195;-49
2022/12/25 10:34:14;;;;;;;2.05;1.85;;;29.80;77.60;;;;;;5039851;28;20167;-49
2022/12/25 10:36:42;;;;;;;3.30;1.80;;;30.50;92.60;;;;;;5039513;28;20190;-51
2022/12/25 10:39:15;;;;;;;2.63;1.90;;;30.40;74.90;;;;;;5039825;28;20170;-50
2022/12/25 10:42:05;;;;;;;2.38;2.17;;;31.30;68.80;;;;;;5039171;28;20229;-57
2022/12/25 10:44:32;;;;;;;2.05;1.95;;;32.00;64.00;;;;;;5039771;28;20203;-50
2022/12/25 10:47:00;;;;;;;3.38;2.20;;;32.00;61.00;;;;;;5039746;28;20198;-50
2022/12/25 10:49:37;;;;;;;4.07;2.40;;;32.20;60.30;;;;;;5038990;28;20655;-51
2022/12/25 10:52:17;;;;;;;3.28;2.08;;;32.40;59.70;;;;;;5038813;28;20214;-50
2022/12/25 10:54:43;;;;;;;3.17;2.15;;;32.90;58.70;;;;;;5044144;28;20598;-50
2022/12/25 10:57:08;;;;;;;3.53;1.77;;;33.10;57.50;;;;;;5046959;28;20187;-51
2022/12/25 10:59:41;;;;;;;4.18;2.28;;;33.60;56.70;;;;;;5046513;28;20167;-51
2022/12/25 11:02:16;;;;;;;2.22;2.03;;;34.00;54.80;;;;;;5046531;28;20189;-47
2022/12/25 11:04:42;;;;;;;2.53;1.70;;;33.90;53.50;;;;;;5033753;28;20656;-53
2022/12/25 11:07:20;;;;;;;4.18;2.15;;;34.00;52.90;;;;;;5033430;28;20202;-50
2022/12/25 11:09:54;;;;;;;2.90;2.17;;;33.60;51.20;;;;;;5031830;28;20168;-51
2022/12/25 11:12:26;;;;;;;2.55;2.00;;;32.90;51.90;;;;;;5030420;28;20195;-53
2022/12/25 11:14:57;;;;;;;3.03;2.33;;;32.40;52.60;;;;;;5029251;28;20210;-51
2022/12/25 11:17:25;;;;;;;2.80;2.15;;;32.30;53.30;;;;;;5029945;28;20731;-50
2022/12/25 11:19:53;;;;;;;2.85;2.00;;;32.30;53.30;;;;;;5029740;28;20184;-48
2022/12/25 11:22:18;;;;;;;3.20;2.30;;;32.60;53.20;;;;;;5029110;28;20585;-50
2022/12/25 11:24:44;;;;;;;2.53;1.90;;;33.40;52.60;;;;;;5031158;28;20202;-52
2022/12/25 11:27:26;;;;;;;2.95;1.80;;;33.50;51.10;;;;;;5027230;28;20222;-51
2022/12/25 11:30:03;;;;;;;1.95;1.75;;;33.30;50.90;;;;;;5027201;28;20179;-52
2022/12/25 11:32:40;;;;;;;3.45;2.15;;;33.40;51.20;;;;;;5032231;28;20202;-54
2022/12/25 11:35:12;;;;;;;2.97;1.85;;;33.50;50.20;;;;;;5031756;28;20178;-51
2022/12/25 11:37:43;;;;;;;3.45;2.15;;;33.20;50.90;;;;;;5017145;28;20184;-52
2022/12/25 11:40:25;;;;;;;2.17;1.67;;;32.70;50.60;;;;;;5040427;28;20173;-51
2022/12/25 11:43:02;;;;;;;2.70;1.85;;;32.60;50.90;;;;;;5030087;28;20172;-51
2022/12/25 11:45:34;;;;;;;2.35;1.70;;;32.70;50.50;;;;;;5030847;28;20187;-50
2022/12/25 11:48:10;;;;;;;2.70;1.65;;;32.40;51.50;;;;;;5030604;28;20593;-50
2022/12/25 11:50:56;;;;;;;2.60;1.90;;;32.30;51.00;;;;;;5031630;28;20694;-49
2022/12/25 11:53:33;;;;;;;2.60;1.60;;;32.10;49.90;;;;;;5032008;28;20212;-49
2022/12/25 11:56:04;;;;;;;2.22;1.50;;;31.10;52.20;;;;;;5030453;28;20265;-50
2022/12/25 11:58:49;;;;;;;3.00;1.60;;;30.90;51.70;;;;;;5027069;28;20280;-53
2022/12/25 12:01:39;;;;;;;2.13;1.50;;;30.90;51.10;;;;;;5030563;28;20182;-52
2022/12/25 12:04:20;;;;;;;2.30;1.40;;;30.90;52.10;;;;;;5031720;28;20253;-50
2022/12/25 12:07:25;;;;;;;2.63;1.38;;;31.00;51.90;;;;;;5032033;28;20238;-50
2022/12/25 12:10:14;;;;;;;2.05;1.60;;;30.40;52.40;;;;;;5031232;28;20191;-52
2022/12/25 12:13:05;;;;;;;2.13;1.65;;;30.20;52.20;;;;;;5027054;28;20333;-51
2022/12/25 12:15:48;;;;;;;2.53;1.52;;;29.70;52.70;;;;;;4989905;28;20665;-54
2022/12/25 12:18:30;;;;;;;1.95;1.50;;;28.50;52.80;;;;;;5031326;28;20185;-51
2022/12/25 12:21:07;;;;;;;1.55;1.23;;;29.40;53.80;;;;;;5027351;28;20179;-52
2022/12/25 12:23:45;;;;;;;1.52;1.35;;;28.90;53.80;;;;;;5029997;28;20195;-50
2022/12/25 12:26:19;;;;;;;1.30;1.20;;;28.20;54.40;;;;;;5046457;28;20680;-50
2022/12/25 12:28:46;;;;;;;1.95;1.52;;;27.60;55.70;;;;;;5025125;28;20177;-51
2022/12/25 12:31:12;;;;;;;1.80;1.50;;;27.40;56.20;;;;;;5012568;28;20172;-50
2022/12/25 12:33:47;;;;;;;2.38;1.50;;;27.40;56.40;;;;;;5019665;28;20200;-52
2022/12/25 12:36:13;;;;;;;1.85;1.50;;;27.40;56.10;;;;;;5031273;28;20191;-53
2022/12/25 12:38:42;;;;;;;2.10;1.40;;;27.20;56.80;;;;;;5030639;28;20263;-51
2022/12/25 12:41:09;;;;;;;2.83;1.25;;;27.40;56.60;;;;;;5030936;28;20172;-51
2022/12/25 12:44:04;;;;;;;2.40;1.35;;;27.40;56.30;;;;;;5029780;28;20184;-49
2022/12/25 12:46:35;;;;;;;2.60;1.65;;;27.50;56.30;;;;;;4996725;28;20709;-49
2022/12/25 12:49:23;;;;;;;2.20;1.50;;;27.50;56.20;;;;;;4995330;28;20184;-50
2022/12/25 12:54:26;;;;;;;2.47;1.58;;;26.40;71.90;;;;;;5046269;28;20207;-50
2022/12/25 12:57:00;;;;;;;1.83;1.40;;;26.50;57.40;;;;;;5050259;28;20521;-53
2022/12/25 12:59:33;;;;;;;1.60;1.08;;;26.20;58.20;;;;;;5050535;28;20658;-50
2022/12/25 13:02:18;;;;;;;1.67;1.27;;;26.40;58.70;;;;;;5051446;28;20231;-50
2022/12/25 13:04:53;;;;;;;2.83;1.20;;;26.40;58.80;;;;;;5048281;28;20250;-49
2022/12/25 13:07:24;;;;;;;1.67;1.40;;;26.60;58.20;;;;;;5051143;28;20242;-51
2022/12/25 13:10:11;;;;;;;2.13;1.27;;;27.00;57.20;;;;;;5049532;28;20580;-50
2022/12/25 13:12:37;;;;;;;1.77;1.35;;;27.70;58.10;;;;;;5048701;28;20230;-51
2022/12/25 13:15:10;;;;;;;3.83;1.40;;;27.20;57.30;;;;;;5050704;28;20198;-53
2022/12/25 13:17:36;;;;;;;1.60;1.30;;;27.00;56.90;;;;;;5051119;28;20171;-52
2022/12/25 13:20:03;;;;;;;2.00;1.40;;;27.00;57.50;;;;;;5051128;28;20178;-50
2022/12/25 13:22:32;;;;;;;2.17;1.80;;;27.00;57.40;;;;;;5050557;28;20221;-50
2022/12/25 13:25:00;;;;;;;4.32;1.60;;;26.90;56.90;;;;;;5050497;28;20186;-50
2022/12/25 13:27:29;;;;;;;3.40;1.70;;;26.70;57.80;;;;;;5049764;28;20175;-53
2022/12/25 13:29:56;;;;;;;1.55;1.23;;;26.50;57.10;;;;;;5047890;28;20229;-50
2022/12/25 13:32:30;;;;;;;2.35;1.50;;;26.20;57.60;;;;;;5050775;28;20891;-49
2022/12/25 13:34:57;;;;;;;2.03;1.33;;;26.00;58.00;;;;;;5050125;28;20183;-49
2022/12/25 13:37:26;;;;;;;3.03;1.90;;;25.70;58.00;;;;;;5051041;28;20191;-49
2022/12/25 13:39:55;;;;;;;3.28;2.30;;;25.20;58.70;;;;;;5049793;28;20179;-52
2022/12/25 13:42:25;;;;;;;2.33;1.58;;;24.50;59.80;;;;;;5050376;28;20234;-52
2022/12/25 13:44:59;;;;;;;3.35;1.73;;;24.00;61.40;;;;;;5051250;28;20513;-50
2022/12/25 13:47:42;;;;;;;1.55;1.20;;;23.80;62.60;;;;;;5045865;28;20167;-50
2022/12/25 13:50:25;;;;;;;2.78;1.67;;;23.70;62.30;;;;;;5049269;28;20163;-51
2022/12/25 13:52:52;;;;;;;1.70;1.45;;;23.70;63.00;;;;;;5047547;28;20211;-51
2022/12/25 13:55:22;;;;;;;2.08;1.40;;;23.80;62.90;;;;;;5050653;28;20536;-51
2022/12/25 13:57:50;;;;;;;2.63;1.52;;;23.80;63.10;;;;;;5050302;28;20182;-54
2022/12/25 14:00:20;;;;;;;2.45;1.80;;;23.80;63.50;;;;;;5050794;28;20269;-51
2022/12/25 14:02:46;;;;;;;1.67;1.17;;;23.90;63.10;;;;;;5044678;28;20199;-49
2022/12/25 14:05:24;;;;;;;1.58;1.42;;;23.90;63.10;;;;;;5031620;28;20183;-49
2022/12/25 14:07:52;;;;;;;2.92;1.73;;;23.90;63.00;;;;;;5045667;28;20175;-49
2022/12/25 14:10:19;;;;;;;1.90;1.60;;;23.80;63.20;;;;;;5012893;28;20178;-51
2022/12/25 14:12:48;;;;;;;2.42;1.50;;;23.70;63.30;;;;;;5049409;28;20205;-48
2022/12/25 14:15:16;;;;;;;2.13;1.60;;;23.70;63.60;;;;;;5050222;28;20185;-49
2022/12/25 14:17:42;;;;;;;2.60;1.75;;;23.50;62.80;;;;;;5031140;28;20183;-51
2022/12/25 14:20:32;;;;;;;1.95;1.48;;;23.20;64.00;;;;;;5047871;28;20254;-49
2022/12/25 14:22:59;;;;;;;3.03;1.77;;;22.90;64.40;;;;;;5049324;28;20202;-50
2022/12/25 14:25:32;;;;;;;2.80;1.60;;;22.80;64.60;;;;;;5044426;28;20506;-50
2022/12/25 14:27:59;;;;;;;4.47;2.13;;;22.70;64.50;;;;;;5047678;28;20850;-52
2022/12/25 14:30:27;;;;;;;3.50;1.95;;;22.40;65.70;;;;;;5049795;28;20647;-50
2022/12/25 14:32:54;;;;;;;3.08;1.90;;;22.30;66.20;;;;;;5050446;28;20195;-50
2022/12/25 14:35:20;;;;;;;3.20;2.10;;;22.20;66.60;;;;;;5049487;28;20183;-50
2022/12/25 14:37:50;;;;;;;3.35;1.70;;;22.10;66.70;;;;;;5049192;28;20179;-51
2022/12/25 14:40:31;;;;;;;2.95;1.88;;;22.00;66.70;;;;;;5052959;28;20610;-51
2022/12/25 14:42:58;;;;;;;2.85;2.03;;;21.70;67.30;;;;;;5054042;28;20202;-53
2022/12/25 14:45:31;;;;;;;3.35;1.80;;;21.40;68.20;;;;;;5052847;28;20253;-51
2022/12/25 14:48:01;;;;;;;5.65;1.95;;;21.30;68.80;;;;;;5053636;28;20242;-54
2022/12/25 14:50:38;;;;;;;2.63;1.85;;;21.10;68.60;;;;;;5054123;28;20205;-54
2022/12/25 14:53:15;;;;;;;3.50;1.87;;;20.80;69.40;;;;;;5053566;28;20210;-53
2022/12/25 14:55:47;;;;;;;3.67;2.33;;;20.60;70.00;;;;;;5053651;28;20190;-53
2022/12/25 14:58:24;;;;;;;3.23;1.70;;;20.30;70.50;;;;;;5053739;28;20182;-54
2022/12/25 15:00:58;;;;;;;4.10;1.80;;;20.00;71.40;;;;;;5053748;28;20178;-51
2022/12/25 15:03:30;;;;;;;4.03;1.93;;;19.70;72.60;;;;;;5053448;28;20230;-52
2022/12/25 15:06:05;;;;;;;3.83;2.10;;;19.40;73.30;;;;;;5053342;28;20254;-52
2022/12/25 15:08:32;;;;;;;3.10;2.10;;;19.20;74.00;;;;;;5052375;28;20173;-51
2022/12/25 15:10:58;;;;;;;2.70;2.13;;;19.00;74.90;;;;;;5051965;28;20519;-51
2022/12/25 15:13:25;;;;;;;4.40;2.53;;;18.80;76.00;;;;;;5024422;28;20310;-49
2022/12/25 15:15:56;;;;;;;5.00;2.77;;;18.50;76.90;;;;;;5053267;28;20178;-54
2022/12/25 15:18:25;;;;;;;3.03;2.50;;;18.20;78.00;;;;;;5053430;28;20187;-54
2022/12/25 15:20:51;;;;;;;4.43;2.77;;;18.00;79.20;;;;;;5053286;28;20198;-53
2022/12/25 15:23:17;;;;;;;3.60;2.50;;;17.80;80.10;;;;;;5052651;28;20749;-51
2022/12/25 15:25:43;;;;;;;5.07;2.20;;;17.70;81.20;;;;;;5052996;28;20730;-50
2022/12/25 15:28:12;;;;;;;2.60;1.80;;;17.60;82.20;;;;;;5052558;28;20183;-50
2022/12/25 15:30:38;;;;;;;3.83;2.00;;;17.30;83.30;;;;;;5053209;28;20279;-54
2022/12/25 15:33:05;;;;;;;3.27;2.30;;;17.10;84.40;;;;;;5052845;28;20195;-53
2022/12/25 15:35:32;;;;;;;5.23;3.03;;;16.90;85.50;;;;;;5048373;28;20324;-52
2022/12/25 15:37:58;;;;;;;4.50;3.20;;;16.80;86.60;;;;;;5053242;28;20240;-51
2022/12/25 15:40:24;;;;;;;3.60;2.50;;;16.70;87.70;;;;;;5051958;28;20186;-51
2022/12/25 15:42:49;;;;;;;3.13;2.10;;;16.50;88.70;;;;;;5051437;28;20267;-52
2022/12/25 15:45:24;;;;;;;2.93;2.20;;;16.40;89.60;;;;;;5052141;28;20545;-50
2022/12/25 15:47:50;;;;;;;4.53;2.50;;;16.20;90.20;;;;;;5053000;28;20176;-50
2022/12/25 15:50:17;;;;;;;5.10;2.50;;;16.20;90.70;;;;;;5052272;28;20653;-51
2022/12/25 15:52:43;;;;;;;4.10;2.50;;;15.90;90.90;;;;;;5052220;28;20215;-54
2022/12/25 15:55:09;;;;;;;4.50;2.40;;;15.90;91.30;;;;;;5052483;28;20177;-51
2022/12/25 15:57:36;;;;;;;5.30;3.00;;;15.90;91.90;;;;;;5052260;28;20880;-53
2022/12/25 16:00:07;;;;;;;3.80;3.07;;;15.80;92.20;;;;;;5052902;28;20191;-51
2022/12/25 16:02:33;;;;;;;3.33;2.60;;;15.70;92.60;;;;;;5050581;28;20202;-51
2022/12/25 16:04:58;;;;;;;4.90;2.60;;;15.70;92.80;;;;;;5052511;28;20195;-52
2022/12/25 16:07:26;;;;;;;3.33;2.10;;;15.60;93.30;;;;;;5053207;28;20668;-49
2022/12/25 16:09:52;;;;;;;8.63;2.67;;;15.40;93.70;;;;;;5052663;28;20213;-49
2022/12/25 16:12:17;;;;;;;4.60;2.50;;;15.40;94.10;;;;;;5053333;28;20628;-49
2022/12/25 16:14:43;;;;;;;5.50;2.70;;;15.30;94.40;;;;;;5052875;28;20264;-50
2022/12/25 16:17:14;;;;;;;4.37;2.60;;;15.10;94.80;;;;;;5052776;28;20543;-52
2022/12/25 16:19:40;;;;;;;4.17;2.40;;;15.10;95.10;;;;;;5052405;28;20171;-51
2022/12/25 16:22:21;;;;;;;4.70;2.87;;;15.10;95.50;;;;;;5052065;28;20710;-51
2022/12/25 16:24:48;;;;;;;3.53;2.70;;;15.00;95.90;;;;;;5052123;28;20175;-52
2022/12/25 16:27:13;;;;;;;5.30;3.00;;;14.80;96.10;;;;;;5051598;28;20190;-52
2022/12/25 16:29:40;;;;;;;4.53;3.10;;;14.90;96.60;;;;;;5052508;28;20171;-50
2022/12/25 16:32:07;;;;;;;3.70;2.27;;;14.70;96.80;;;;;;5051902;28;20537;-51
2022/12/25 16:34:33;;;;;;;4.73;2.60;;;14.60;97.30;;;;;;5052120;28;20178;-49
2022/12/25 16:36:58;;;;;;;5.40;3.47;;;14.50;97.70;;;;;;5052530;28;20190;-51
2022/12/25 16:39:24;;;;;;;6.73;5.13;;;14.50;97.90;;;;;;5051994;28;20182;-50
2022/12/25 16:41:49;;;;;;;9.97;8.37;;;14.50;98.50;;;;;;5051930;28;20195;-53
2022/12/25 16:44:15;;;;;;;8.43;5.67;;;14.40;98.70;;;;;;5051850;28;20163;-49
2022/12/25 16:46:41;;;;;;;4.07;2.70;;;14.30;98.70;;;;;;5052134;28;20320;-52
2022/12/25 16:49:07;;;;;;;4.17;2.50;;;14.30;99.20;;;;;;5052086;28;20167;-50
2022/12/25 16:51:33;;;;;;;3.87;2.47;;;14.20;99.40;;;;;;5051447;28;20266;-49
2022/12/25 16:53:58;;;;;;;3.87;2.47;;;14.10;99.70;;;;;;5051407;28;20707;-49
2022/12/25 16:56:25;;;;;;;3.17;2.20;;;14.10;99.90;;;;;;5050817;28;20170;-49
2022/12/25 16:58:51;;;;;;;3.33;2.30;;;14.10;99.90;;;;;;5052212;28;20195;-49
2022/12/25 17:01:19;;;;;;;3.97;2.37;;;13.90;99.90;;;;;;5050806;28;20686;-49
2022/12/25 17:03:46;;;;;;;5.70;2.97;;;13.90;99.90;;;;;;5051313;28;20207;-49
2022/12/25 17:06:13;;;;;;;9.00;5.23;;;13.80;99.90;;;;;;5023896;28;20172;-49
2022/12/25 17:08:39;;;;;;;8.23;5.37;;;13.60;99.90;;;;;;5036720;28;20226;-50
2022/12/25 17:11:05;;;;;;;11.47;7.23;;;13.60;99.90;;;;;;5050937;28;20224;-49
2022/12/25 17:13:30;;;;;;;8.67;7.50;;;13.60;99.90;;;;;;5050332;28;20336;-51
2022/12/25 17:15:56;;;;;;;5.63;3.80;;;13.60;99.90;;;;;;5051301;28;20202;-49
2022/12/25 17:18:21;;;;;;;5.53;4.13;;;13.60;99.90;;;;;;5051914;28;20187;-49
2022/12/25 17:20:53;;;;;;;5.60;3.17;;;13.50;99.90;;;;;;5050209;28;20210;-54
2022/12/25 17:23:19;;;;;;;5.40;3.33;;;13.50;99.90;;;;;;5047932;28;20219;-49
2022/12/25 17:25:45;;;;;;;7.80;5.40;;;13.50;99.90;;;;;;5049865;28;20183;-50
2022/12/25 17:28:11;;;;;;;6.20;4.30;;;13.50;99.90;;;;;;5046358;28;20186;-50
2022/12/25 17:30:36;;;;;;;5.13;4.03;;;13.40;99.90;;;;;;5025478;28;20265;-50
2022/12/25 17:33:02;;;;;;;4.73;3.60;;;13.40;99.90;;;;;;5049196;28;20309;-53
2022/12/25 17:35:27;;;;;;;6.10;4.33;;;13.30;99.90;;;;;;5049527;28;20193;-52
2022/12/25 17:37:53;;;;;;;5.97;3.70;;;13.30;99.90;;;;;;5050116;28;20183;-50
2022/12/25 17:40:19;;;;;;;4.20;3.67;;;13.20;99.90;;;;;;5047619;28;20643;-48
2022/12/25 17:42:44;;;;;;;4.07;3.00;;;13.20;99.90;;;;;;5046789;28;20202;-52
2022/12/25 17:45:10;;;;;;;5.10;3.23;;;13.10;99.90;;;;;;5031489;28;20596;-48
2022/12/25 17:47:36;;;;;;;5.13;3.00;;;13.20;99.90;;;;;;5025491;28;20549;-47
2022/12/25 17:50:02;;;;;;;5.00;2.77;;;13.20;99.90;;;;;;5026327;28;20185;-48
2022/12/25 17:52:27;;;;;;;4.33;2.87;;;13.10;99.90;;;;;;5031537;28;20242;-47
2022/12/25 17:54:53;;;;;;;3.70;2.80;;;13.10;99.90;;;;;;5050897;28;20179;-50
2022/12/25 17:57:18;;;;;;;6.03;3.70;;;13.10;99.90;;;;;;5032603;28;20187;-49
2022/12/25 17:59:44;;;;;;;3.87;2.90;;;13.10;99.90;;;;;;5050827;28;20652;-49
2022/12/25 18:02:10;;;;;;;5.27;3.40;;;13.00;99.90;;;;;;5050536;28;20218;-53
2022/12/25 18:04:36;;;;;;;5.03;3.10;;;12.90;99.90;;;;;;5048752;28;20182;-50
2022/12/25 18:07:02;;;;;;;6.10;3.43;;;12.90;99.90;;;;;;5050683;28;20187;-49
2022/12/25 18:09:27;;;;;;;5.80;3.97;;;12.80;99.90;;;;;;5050463;28;20179;-50
2022/12/25 18:11:53;;;;;;;7.10;4.67;;;12.70;99.90;;;;;;5050454;28;20190;-48
2022/12/25 18:14:19;;;;;;;5.90;4.10;;;12.70;99.90;;;;;;5052671;28;20683;-54
2022/12/25 18:16:45;;;;;;;7.60;4.23;;;12.70;99.90;;;;;;5053753;28;20638;-51
2022/12/25 18:19:12;;;;;;;5.37;3.67;;;12.60;99.90;;;;;;5054853;28;20190;-50
2022/12/25 18:21:38;;;;;;;6.63;4.37;;;12.60;99.90;;;;;;5053507;28;20232;-50
2022/12/25 18:24:04;;;;;;;11.57;5.70;;;12.50;99.90;;;;;;5054540;28;20198;-51
2022/12/25 18:26:30;;;;;;;8.83;4.97;;;12.40;99.90;;;;;;5054053;28;20175;-50
2022/12/25 18:28:56;;;;;;;7.53;4.80;;;12.40;99.90;;;;;;5053877;28;20171;-52
2022/12/25 18:31:24;;;;;;;6.73;4.93;;;12.30;99.90;;;;;;5054449;28;20710;-51
2022/12/25 18:33:51;;;;;;;6.50;3.87;;;12.30;99.90;;;;;;5052970;28;20203;-51
2022/12/25 18:36:20;;;;;;;7.13;5.37;;;12.20;99.90;;;;;;5054255;28;20233;-51
2022/12/25 18:38:49;;;;;;;6.13;4.40;;;12.20;99.90;;;;;;5054832;28;20539;-50
2022/12/25 18:41:15;;;;;;;7.63;4.60;;;12.10;99.90;;;;;;5053663;28;20237;-52
2022/12/25 18:43:40;;;;;;;5.57;4.60;;;13.00;99.90;;;;;;5054258;28;20216;-51
2022/12/25 18:46:06;;;;;;;6.33;5.07;;;12.10;99.90;;;;;;5053503;28;20749;-50
2022/12/25 18:48:32;;;;;;;7.13;4.67;;;12.10;99.90;;;;;;5054338;28;20190;-49
2022/12/25 18:51:01;;;;;;;6.80;4.40;;;12.10;99.90;;;;;;5053990;28;20224;-51
2022/12/25 18:53:28;;;;;;;4.43;3.73;;;12.10;99.90;;;;;;5053412;28;20293;-53
2022/12/25 18:55:55;;;;;;;7.13;4.10;;;12.00;99.90;;;;;;5072209;22;20198;-47
2022/12/25 18:58:21;;;;;;;4.90;3.37;;;11.80;99.90;;;;;;5068411;28;20198;-51
2022/12/25 19:00:47;;;;;;;7.07;4.27;;;12.10;99.90;;;;;;5074084;28;20178;-49
2022/12/25 19:03:13;;;;;;;8.07;4.30;;;12.00;99.90;;;;;;5076522;28;20319;-50
2022/12/25 19:05:39;;;;;;;4.73;3.57;;;12.00;99.90;;;;;;5072585;28;20174;-52
2022/12/25 19:08:05;;;;;;;4.57;3.10;;;12.00;99.90;;;;;;5056692;28;20195;-51
2022/12/25 19:10:30;;;;;;;6.70;3.10;;;11.90;99.90;;;;;;5035990;28;20202;-49
2022/12/25 19:12:56;;;;;;;7.60;3.60;;;11.90;99.90;;;;;;5054311;28;20710;-52
2022/12/25 19:15:22;;;;;;;7.80;4.00;;;11.90;99.90;;;;;;5054823;28;20198;-50
2022/12/25 19:17:47;;;;;;;5.83;3.87;;;11.90;99.90;;;;;;5066337;28;20209;-50
2022/12/25 19:20:13;;;;;;;5.43;3.73;;;11.80;99.90;;;;;;5071611;28;20205;-50
2022/12/25 19:22:38;;;;;;;5.23;3.57;;;11.80;99.90;;;;;;5067106;28;20277;-52
2022/12/25 19:25:04;;;;;;;6.30;4.27;;;11.70;99.90;;;;;;5058662;28;20229;-51
2022/12/25 19:27:30;;;;;;;6.37;3.10;;;11.60;99.90;;;;;;5069164;28;20203;-50
2022/12/25 19:29:55;;;;;;;6.00;3.53;;;11.50;99.90;;;;;;5073427;28;20538;-49
2022/12/25 19:32:21;;;;;;;6.00;3.73;;;11.50;99.90;;;;;;5058531;28;20656;-49
2022/12/25 19:34:47;;;;;;;7.27;3.60;;;11.60;99.90;;;;;;5053303;28;20258;-51
2022/12/25 19:37:13;;;;;;;5.23;4.07;;;11.50;99.90;;;;;;5053044;28;20191;-52
2022/12/25 19:39:44;;;;;;;4.90;3.50;;;11.50;99.90;;;;;;5055303;28;20205;-50
2022/12/25 19:42:11;;;;;;;4.20;3.77;;;11.40;99.90;;;;;;5065515;28;20195;-50
2022/12/25 19:44:36;;;;;;;5.60;4.30;;;11.40;99.90;;;;;;5053253;28;20171;-52
2022/12/25 19:47:02;;;;;;;6.50;4.27;;;11.40;99.90;;;;;;5036271;28;20766;-49
2022/12/25 19:49:27;;;;;;;5.93;3.77;;;11.30;99.90;;;;;;5068342;28;20182;-49
2022/12/25 19:51:53;;;;;;;7.43;4.20;;;11.30;99.90;;;;;;5067752;28;20175;-50
2022/12/25 19:54:19;;;;;;;6.47;3.97;;;11.30;99.90;;;;;;5053782;28;20641;-51
2022/12/25 19:56:46;;;;;;;8.87;4.53;;;11.30;99.90;;;;;;5064051;28;20213;-54
2022/12/25 19:59:13;;;;;;;7.00;4.70;;;11.20;99.90;;;;;;5067852;28;20178;-51
2022/12/25 20:01:39;;;;;;;7.60;4.53;;;11.10;99.90;;;;;;5052538;28;20163;-50
2022/12/25 20:04:07;;;;;;;5.33;4.10;;;11.10;99.90;;;;;;5041092;28;20178;-53
2022/12/25 20:06:34;;;;;;;6.90;4.47;;;11.00;99.90;;;;;;5058142;28;20229;-50
2022/12/25 20:09:09;;;;;;;5.47;4.20;;;11.00;99.90;;;;;;5056960;28;20174;-50
2022/12/25 20:11:36;;;;;;;8.07;4.83;;;10.90;99.90;;;;;;5069029;28;20178;-50
2022/12/25 20:14:02;;;;;;;5.63;4.70;;;10.80;99.90;;;;;;5051607;28;20198;-52
2022/12/25 20:16:28;;;;;;;5.80;4.43;;;10.80;99.90;;;;;;5014311;28;20191;-51
2022/12/25 20:18:55;;;;;;;6.80;4.60;;;10.80;99.90;;;;;;5055193;28;20508;-52
2022/12/25 20:21:21;;;;;;;5.43;4.20;;;10.80;99.90;;;;;;5057435;28;20282;-49
2022/12/25 20:23:49;;;;;;;5.33;4.33;;;10.80;99.90;;;;;;5054202;28;20405;-49
2022/12/25 20:26:17;;;;;;;5.83;4.60;;;10.70;99.90;;;;;;5039723;28;20213;-54
2022/12/25 20:28:43;;;;;;;6.13;4.40;;;10.60;99.90;;;;;;5049290;28;20183;-50
2022/12/25 20:31:22;;;;;;;7.33;4.40;;;10.60;99.90;;;;;;5051112;28;20239;-50
2022/12/25 20:33:47;;;;;;;6.20;4.37;;;10.60;99.90;;;;;;5063749;28;20192;-50
2022/12/25 20:36:13;;;;;;;5.67;4.30;;;10.60;99.90;;;;;;5049959;28;20285;-52
2022/12/25 20:38:39;;;;;;;7.87;4.10;;;10.60;99.90;;;;;;5050486;28;20179;-51
2022/12/25 20:41:10;;;;;;;6.23;4.77;;;10.60;99.90;;;;;;5053151;28;20544;-51
2022/12/25 20:43:37;;;;;;;6.53;5.27;;;10.60;99.90;;;;;;5050393;28;20198;-50
2022/12/25 20:46:03;;;;;;;7.50;5.90;;;10.60;99.90;;;;;;5052387;28;20175;-54
2022/12/25 20:48:28;;;;;;;7.10;5.90;;;10.50;99.90;;;;;;5067550;28;20204;-50
2022/12/25 20:51:08;;;;;;;6.97;5.70;;;10.50;99.90;;;;;;5062897;28;20167;-50
2022/12/25 20:53:34;;;;;;;7.23;5.50;;;10.40;99.90;;;;;;5053121;28;20639;-50
2022/12/25 20:56:00;;;;;;;8.07;6.20;;;10.40;99.90;;;;;;5062798;28;20170;-50
2022/12/25 20:58:26;;;;;;;7.37;5.67;;;10.30;99.90;;;;;;5071091;28;20182;-50
2022/12/25 21:00:51;;;;;;;7.00;5.90;;;10.30;99.90;;;;;;5063701;28;20538;-49
2022/12/25 21:03:17;;;;;;;8.97;6.33;;;10.20;99.90;;;;;;5069605;28;20221;-52
2022/12/25 21:05:53;;;;;;;7.57;6.07;;;10.20;99.90;;;;;;5051423;28;20182;-51
2022/12/25 21:08:21;;;;;;;9.70;8.03;;;10.20;99.90;;;;;;5051523;28;20167;-52
2022/12/25 21:10:51;;;;;;;9.77;7.43;;;10.20;99.90;;;;;;5050891;28;20687;-54
2022/12/25 21:13:18;;;;;;;8.57;7.20;;;10.20;99.90;;;;;;5053133;28;20184;-51
2022/12/25 21:15:45;;;;;;;11.53;8.67;;;10.20;99.90;;;;;;5053926;28;20172;-51
2022/12/25 21:18:11;;;;;;;6.07;5.40;;;10.20;99.90;;;;;;5064585;28;20194;-55
2022/12/25 21:20:36;;;;;;;9.20;7.30;;;10.20;99.90;;;;;;5048440;28;20207;-51
2022/12/25 21:23:02;;;;;;;13.43;7.97;;;10.00;99.90;;;;;;5062785;28;20192;-49
2022/12/25 21:25:27;;;;;;;8.33;6.37;;;9.90;99.90;;;;;;5058446;28;20170;-48
2022/12/25 21:27:53;;;;;;;8.10;6.40;;;9.80;99.90;;;;;;5068693;28;20206;-50
2022/12/25 21:30:18;;;;;;;7.83;6.30;;;9.60;99.90;;;;;;5059550;28;20539;-50
2022/12/25 21:35:28;;;;;;;6.20;5.50;;;9.50;99.90;;;;;;5061025;28;20288;-51
2022/12/25 21:37:53;;;;;;;6.77;5.20;;;9.50;99.90;;;;;;5053087;28;20273;-51
2022/12/25 21:40:19;;;;;;;6.97;5.03;;;9.30;99.90;;;;;;5056195;28;20208;-53
2022/12/25 21:42:45;;;;;;;7.13;5.60;;;9.30;99.90;;;;;;5068290;28;20202;-50
2022/12/25 21:45:10;;;;;;;6.93;5.27;;;9.30;99.90;;;;;;5041898;28;20236;-54
2022/12/25 21:47:36;;;;;;;9.43;5.40;;;9.30;99.90;;;;;;5055266;28;20205;-52
2022/12/25 21:52:45;;;;;;;7.93;5.23;;;9.50;99.90;;;;;;5059376;28;20213;-49
2022/12/25 21:55:11;;;;;;;7.87;5.77;;;9.50;99.90;;;;;;5053951;28;20553;-50
2022/12/25 21:57:36;;;;;;;6.40;5.37;;;9.60;99.90;;;;;;5049507;28;20306;-54
2022/12/25 22:00:03;;;;;;;7.30;5.30;;;9.60;99.90;;;;;;5051092;28;20209;-51
2022/12/25 22:03:53;;;;;;;6.93;5.27;;;;;;;;;;5060167;27;20619;-56
2022/12/25 22:09:07;;;;;;;6.70;5.00;;;10.10;99.90;;;;;;5063974;28;20274;-56
2022/12/25 22:19:49;;;;;;;6.83;5.30;;;9.70;99.90;;;;;;5064614;28;20246;-55
2022/12/25 22:22:20;;;;;;;6.97;4.87;;;10.00;99.90;;;;;;5062594;28;20206;-50
2022/12/25 22:24:49;;;;;;;6.13;5.30;;;9.30;99.90;;;;;;5064398;28;20550;-55
2022/12/25 22:27:16;;;;;;;9.90;5.63;;;;;;;;;;5055467;28;20194;-52
2022/12/25 22:29:42;;;;;;;9.27;6.87;;;;;;;;;;5063781;28;20673;-51
2022/12/25 22:32:08;;;;;;;8.10;5.63;;;9.30;99.90;;;;;;5040684;28;20187;-50
2022/12/25 22:34:34;;;;;;;7.07;5.63;;;;;;;;;;5130144;27;20176;-53
2022/12/25 22:37:01;;;;;;;6.83;5.47;;;9.50;99.90;;;;;;5047178;28;20841;-51
2022/12/25 22:39:28;;;;;;;7.13;5.57;;;9.40;99.90;;;;;;5064402;28;20179;-55
2022/12/25 22:41:55;;;;;;;9.70;6.13;;;9.50;99.90;;;;;;5117048;27;20199;-50
2022/12/25 22:44:25;;;;;;;6.33;5.07;;;9.40;99.90;;;;;;5074541;27;20185;-49
2022/12/25 22:46:52;;;;;;;7.63;5.60;;;;;;;;;;5060789;28;20914;-55
2022/12/25 22:49:18;;;;;;;7.07;5.73;;;;;;;;;;5058277;27;20214;-54
2022/12/25 22:51:45;;;;;;;7.97;5.60;;;9.30;99.90;;;;;;5063553;28;20206;-52
2022/12/25 22:54:15;;;;;;;7.77;5.57;;;10.70;99.90;;;;;;5061901;28;20250;-51
2022/12/25 22:56:41;;;;;;;7.00;6.30;;;9.30;99.90;;;;;;5063461;27;20618;-53
2022/12/25 22:59:08;;;;;;;9.63;8.63;;;9.20;99.90;;;;;;5062196;28;20210;-53
2022/12/25 23:01:34;;;;;;;10.93;9.77;;;9.20;99.90;;;;;;5061261;28;20227;-51
2022/12/25 23:03:59;;;;;;;9.83;8.83;;;9.20;99.90;;;;;;5058494;28;20329;-50
2022/12/25 23:06:25;;;;;;;8.40;7.40;;;10.10;99.90;;;;;;5060641;28;20195;-52
2022/12/25 23:08:50;;;;;;;9.90;7.93;;;9.10;99.90;;;;;;5061915;28;20543;-54
2022/12/25 23:11:16;;;;;;;11.87;10.77;;;9.10;99.90;;;;;;5061879;28;20183;-54
2022/12/25 23:16:26;;;;;;;6.73;6.07;;;9.10;99.90;;;;;;5049778;28;20209;-52
2022/12/25 23:27:06;;;;;;;7.03;6.33;;;9.00;99.90;;;;;;5043301;28;20206;-54